sensor_id;sensor_type;location;lat;lon;timestamp;P1;durP1;ratioP1;P2;durP2;ratioP2
53642;SDS011;39546;45.534;12.048;2023-03-23T00:05:07;14.90;;;12.93;;
53642;SDS011;39546;45.534;12.048;2023-03-23T00:11:14;15.60;;;12.77;;
53642;SDS011;39546;45.534;12.048;2023-03-23T00:17:23;15.27;;;12.37;;
53642;SDS011;39546;45.534;12.048;2023-03-23T00:23:26;16.60;;;13.23;;
53642;SDS011;39546;45.534;12.048;2023-03-23T00:29:29;17.87;;;16.00;;
53642;SDS011;39546;45.534;12.048;2023-03-23T00:35:33;21.33;;;18.77;;
53642;SDS011;39546;45.534;12.048;2023-03-23T00:41:38;15.32;;;13.70;;
53642;SDS011;39546;45.534;12.048;2023-03-23T00:47:41;14.00;;;12.18;;
53642;SDS011;39546;45.534;12.048;2023-03-23T00:53:48;16.33;;;11.55;;
53642;SDS011;39546;45.534;12.048;2023-03-23T00:59:51;22.75;;;17.33;;
53642;SDS011;39546;45.534;12.048;2023-03-23T01:05:56;16.30;;;12.40;;
53642;SDS011;39546;45.534;12.048;2023-03-23T01:11:58;16.73;;;14.38;;
53642;SDS011;39546;45.534;12.048;2023-03-23T01:18:00;15.38;;;12.27;;
53642;SDS011;39546;45.534;12.048;2023-03-23T01:24:04;14.38;;;12.55;;
53642;SDS011;39546;45.534;12.048;2023-03-23T01:30:11;13.85;;;10.02;;
53642;SDS011;39546;45.534;12.048;2023-03-23T01:36:15;12.25;;;10.82;;
53642;SDS011;39546;45.534;12.048;2023-03-23T01:42:23;13.73;;;10.20;;
53642;SDS011;39546;45.534;12.048;2023-03-23T01:48:27;14.10;;;12.57;;
53642;SDS011;39546;45.534;12.048;2023-03-23T01:54:34;15.45;;;12.37;;
53642;SDS011;39546;45.534;12.048;2023-03-23T02:00:39;16.15;;;14.10;;
53642;SDS011;39546;45.534;12.048;2023-03-23T02:06:56;11.45;;;9.73;;
53642;SDS011;39546;45.534;12.048;2023-03-23T02:13:00;18.60;;;16.58;;
53642;SDS011;39546;45.534;12.048;2023-03-23T02:45:17;12.35;;;11.05;;
53642;SDS011;39546;45.534;12.048;2023-03-23T02:51:21;11.68;;;10.23;;
53642;SDS011;39546;45.534;12.048;2023-03-23T02:57:25;12.73;;;9.45;;
53642;SDS011;39546;45.534;12.048;2023-03-23T03:03:28;15.98;;;14.27;;
53642;SDS011;39546;45.534;12.048;2023-03-23T03:09:42;15.85;;;11.10;;
53642;SDS011;39546;45.534;12.048;2023-03-23T03:22:40;11.52;;;9.13;;
53642;SDS011;39546;45.534;12.048;2023-03-23T03:28:45;11.52;;;8.32;;
53642;SDS011;39546;45.534;12.048;2023-03-23T03:34:50;21.08;;;18.30;;
53642;SDS011;39546;45.534;12.048;2023-03-23T03:40:54;13.73;;;10.55;;
53642;SDS011;39546;45.534;12.048;2023-03-23T03:46:58;13.85;;;12.35;;
53642;SDS011;39546;45.534;12.048;2023-03-23T03:53:00;19.45;;;13.98;;
53642;SDS011;39546;45.534;12.048;2023-03-23T03:59:03;12.13;;;9.82;;
53642;SDS011;39546;45.534;12.048;2023-03-23T04:05:06;11.52;;;9.05;;
53642;SDS011;39546;45.534;12.048;2023-03-23T04:11:10;14.00;;;12.25;;
53642;SDS011;39546;45.534;12.048;2023-03-23T04:17:14;21.42;;;17.70;;
53642;SDS011;39546;45.534;12.048;2023-03-23T04:23:16;16.25;;;13.43;;
53642;SDS011;39546;45.534;12.048;2023-03-23T04:29:23;17.25;;;14.40;;
53642;SDS011;39546;45.534;12.048;2023-03-23T04:35:28;11.52;;;9.93;;
53642;SDS011;39546;45.534;12.048;2023-03-23T04:41:32;14.32;;;10.13;;
53642;SDS011;39546;45.534;12.048;2023-03-23T04:47:36;10.63;;;8.95;;
53642;SDS011;39546;45.534;12.048;2023-03-23T04:53:44;14.38;;;12.77;;
53642;SDS011;39546;45.534;12.048;2023-03-23T04:59:46;13.40;;;11.52;;
53642;SDS011;39546;45.534;12.048;2023-03-23T05:05:49;19.00;;;16.98;;
53642;SDS011;39546;45.534;12.048;2023-03-23T05:11:54;19.95;;;17.67;;
53642;SDS011;39546;45.534;12.048;2023-03-23T05:17:56;16.87;;;14.35;;
53642;SDS011;39546;45.534;12.048;2023-03-23T05:23:59;15.15;;;13.60;;
53642;SDS011;39546;45.534;12.048;2023-03-23T05:30:02;13.82;;;11.00;;
53642;SDS011;39546;45.534;12.048;2023-03-23T05:36:07;18.35;;;14.05;;
53642;SDS011;39546;45.534;12.048;2023-03-23T05:48:47;12.35;;;10.93;;
53642;SDS011;39546;45.534;12.048;2023-03-23T05:54:50;11.12;;;8.82;;
53642;SDS011;39546;45.534;12.048;2023-03-23T06:00:53;13.75;;;10.50;;
53642;SDS011;39546;45.534;12.048;2023-03-23T06:06:55;19.52;;;16.58;;
53642;SDS011;39546;45.534;12.048;2023-03-23T06:12:57;14.52;;;12.37;;
53642;SDS011;39546;45.534;12.048;2023-03-23T06:19:00;12.13;;;10.35;;
53642;SDS011;39546;45.534;12.048;2023-03-23T06:25:04;17.75;;;14.27;;
53642;SDS011;39546;45.534;12.048;2023-03-23T06:31:09;18.08;;;14.25;;
53642;SDS011;39546;45.534;12.048;2023-03-23T06:37:13;20.73;;;18.70;;
53642;SDS011;39546;45.534;12.048;2023-03-23T06:43:16;21.50;;;19.12;;
53642;SDS011;39546;45.534;12.048;2023-03-23T06:49:20;20.52;;;15.95;;
53642;SDS011;39546;45.534;12.048;2023-03-23T07:01:40;18.02;;;16.10;;
53642;SDS011;39546;45.534;12.048;2023-03-23T07:07:43;24.17;;;20.85;;
53642;SDS011;39546;45.534;12.048;2023-03-23T07:13:47;24.10;;;20.52;;
53642;SDS011;39546;45.534;12.048;2023-03-23T07:19:52;29.52;;;26.25;;
53642;SDS011;39546;45.534;12.048;2023-03-23T07:26:13;19.75;;;17.40;;
53642;SDS011;39546;45.534;12.048;2023-03-23T07:32:16;24.05;;;21.45;;
53642;SDS011;39546;45.534;12.048;2023-03-23T07:38:19;32.42;;;26.83;;
53642;SDS011;39546;45.534;12.048;2023-03-23T07:44:22;23.25;;;20.58;;
53642;SDS011;39546;45.534;12.048;2023-03-23T07:50:26;20.17;;;17.65;;
53642;SDS011;39546;45.534;12.048;2023-03-23T07:56:28;21.92;;;18.92;;
53642;SDS011;39546;45.534;12.048;2023-03-23T08:02:32;20.40;;;17.48;;
53642;SDS011;39546;45.534;12.048;2023-03-23T08:08:37;20.98;;;17.92;;
53642;SDS011;39546;45.534;12.048;2023-03-23T08:14:40;25.10;;;20.85;;
53642;SDS011;39546;45.534;12.048;2023-03-23T08:20:46;32.00;;;28.25;;
53642;SDS011;39546;45.534;12.048;2023-03-23T08:26:48;27.27;;;23.48;;
53642;SDS011;39546;45.534;12.048;2023-03-23T08:32:51;21.65;;;18.30;;
53642;SDS011;39546;45.534;12.048;2023-03-23T08:38:54;25.50;;;21.17;;
53642;SDS011;39546;45.534;12.048;2023-03-23T08:44:57;29.23;;;26.17;;
53642;SDS011;39546;45.534;12.048;2023-03-23T08:50:59;26.45;;;21.77;;
53642;SDS011;39546;45.534;12.048;2023-03-23T08:57:03;28.20;;;25.25;;
53642;SDS011;39546;45.534;12.048;2023-03-23T09:03:05;31.20;;;25.70;;
53642;SDS011;39546;45.534;12.048;2023-03-23T09:09:08;27.00;;;22.92;;
53642;SDS011;39546;45.534;12.048;2023-03-23T09:15:12;22.67;;;18.48;;
53642;SDS011;39546;45.534;12.048;2023-03-23T09:21:16;19.10;;;16.27;;
53642;SDS011;39546;45.534;12.048;2023-03-23T09:27:19;20.33;;;16.58;;
53642;SDS011;39546;45.534;12.048;2023-03-23T09:33:21;19.27;;;15.95;;
53642;SDS011;39546;45.534;12.048;2023-03-23T09:39:22;21.10;;;17.30;;
53642;SDS011;39546;45.534;12.048;2023-03-23T09:51:51;25.85;;;22.58;;
53642;SDS011;39546;45.534;12.048;2023-03-23T10:10:42;33.33;;;28.40;;
53642;SDS011;39546;45.534;12.048;2023-03-23T10:35:35;19.55;;;13.93;;
53642;SDS011;39546;45.534;12.048;2023-03-23T10:41:44;26.92;;;24.10;;
53642;SDS011;39546;45.534;12.048;2023-03-23T10:47:52;34.65;;;24.90;;
53642;SDS011;39546;45.534;12.048;2023-03-23T10:54:01;20.30;;;16.58;;
53642;SDS011;39546;45.534;12.048;2023-03-23T11:06:20;25.35;;;21.27;;
53642;SDS011;39546;45.534;12.048;2023-03-23T11:12:35;19.52;;;17.37;;
53642;SDS011;39546;45.534;12.048;2023-03-23T11:18:38;29.80;;;26.60;;
53642;SDS011;39546;45.534;12.048;2023-03-23T11:24:42;26.10;;;21.87;;
53642;SDS011;39546;45.534;12.048;2023-03-23T11:30:46;21.30;;;18.83;;
53642;SDS011;39546;45.534;12.048;2023-03-23T11:36:53;21.23;;;16.15;;
53642;SDS011;39546;45.534;12.048;2023-03-23T11:43:23;27.35;;;21.25;;
53642;SDS011;39546;45.534;12.048;2023-03-23T12:34:40;14.27;;;8.73;;
53642;SDS011;39546;45.534;12.048;2023-03-23T12:53:23;13.95;;;10.35;;
53642;SDS011;39546;45.534;12.048;2023-03-23T12:59:52;10.38;;;7.37;;
53642;SDS011;39546;45.534;12.048;2023-03-23T13:06:37;20.37;;;18.12;;
53642;SDS011;39546;45.534;12.048;2023-03-23T13:12:31;15.00;;;9.55;;
53642;SDS011;39546;45.534;12.048;2023-03-23T13:24:56;21.00;;;18.12;;
53642;SDS011;39546;45.534;12.048;2023-03-23T13:31:15;18.10;;;14.02;;
53642;SDS011;39546;45.534;12.048;2023-03-23T13:37:23;16.65;;;14.18;;
53642;SDS011;39546;45.534;12.048;2023-03-23T13:43:28;16.45;;;14.52;;
53642;SDS011;39546;45.534;12.048;2023-03-23T13:49:44;21.73;;;19.20;;
53642;SDS011;39546;45.534;12.048;2023-03-23T14:02:32;21.62;;;13.35;;
53642;SDS011;39546;45.534;12.048;2023-03-23T14:08:44;14.07;;;9.88;;
53642;SDS011;39546;45.534;12.048;2023-03-23T14:14:51;12.30;;;9.00;;
53642;SDS011;39546;45.534;12.048;2023-03-23T14:21:02;17.52;;;10.48;;
53642;SDS011;39546;45.534;12.048;2023-03-23T14:33:14;12.88;;;9.75;;
53642;SDS011;39546;45.534;12.048;2023-03-23T14:39:30;10.57;;;7.62;;
53642;SDS011;39546;45.534;12.048;2023-03-23T14:45:33;15.63;;;9.02;;
53642;SDS011;39546;45.534;12.048;2023-03-23T14:51:37;21.87;;;19.17;;
53642;SDS011;39546;45.534;12.048;2023-03-23T14:57:48;14.27;;;10.85;;
53642;SDS011;39546;45.534;12.048;2023-03-23T15:03:59;14.93;;;10.75;;
53642;SDS011;39546;45.534;12.048;2023-03-23T15:10:21;13.30;;;8.30;;
53642;SDS011;39546;45.534;12.048;2023-03-23T15:17:10;8.85;;;6.35;;
53642;SDS011;39546;45.534;12.048;2023-03-23T15:23:42;19.90;;;13.40;;
53642;SDS011;39546;45.534;12.048;2023-03-23T15:29:46;12.07;;;10.02;;
53642;SDS011;39546;45.534;12.048;2023-03-23T15:35:58;13.77;;;11.40;;
53642;SDS011;39546;45.534;12.048;2023-03-23T15:42:00;14.07;;;11.55;;
53642;SDS011;39546;45.534;12.048;2023-03-23T15:48:11;16.23;;;13.85;;
53642;SDS011;39546;45.534;12.048;2023-03-23T15:54:15;20.87;;;15.87;;
53642;SDS011;39546;45.534;12.048;2023-03-23T16:00:18;25.62;;;16.58;;
53642;SDS011;39546;45.534;12.048;2023-03-23T16:06:23;13.45;;;11.88;;
53642;SDS011;39546;45.534;12.048;2023-03-23T16:12:28;12.37;;;8.93;;
53642;SDS011;39546;45.534;12.048;2023-03-23T16:18:30;22.73;;;20.10;;
53642;SDS011;39546;45.534;12.048;2023-03-23T16:24:32;23.25;;;16.48;;
53642;SDS011;39546;45.534;12.048;2023-03-23T16:30:34;21.60;;;19.17;;
53642;SDS011;39546;45.534;12.048;2023-03-23T16:36:36;18.45;;;13.30;;
53642;SDS011;39546;45.534;12.048;2023-03-23T16:42:38;19.27;;;14.70;;
53642;SDS011;39546;45.534;12.048;2023-03-23T16:48:41;19.20;;;16.73;;
53642;SDS011;39546;45.534;12.048;2023-03-23T16:54:43;18.95;;;14.10;;
53642;SDS011;39546;45.534;12.048;2023-03-23T17:00:47;22.15;;;16.92;;
53642;SDS011;39546;45.534;12.048;2023-03-23T17:06:50;15.40;;;13.10;;
53642;SDS011;39546;45.534;12.048;2023-03-23T17:12:53;19.67;;;13.38;;
53642;SDS011;39546;45.534;12.048;2023-03-23T17:18:56;21.40;;;15.98;;
53642;SDS011;39546;45.534;12.048;2023-03-23T17:24:58;12.65;;;11.10;;
53642;SDS011;39546;45.534;12.048;2023-03-23T17:31:00;14.27;;;12.00;;
53642;SDS011;39546;45.534;12.048;2023-03-23T17:37:02;12.02;;;9.43;;
53642;SDS011;39546;45.534;12.048;2023-03-23T17:43:05;14.98;;;13.02;;
53642;SDS011;39546;45.534;12.048;2023-03-23T17:49:07;15.70;;;11.85;;
53642;SDS011;39546;45.534;12.048;2023-03-23T17:55:10;15.57;;;12.48;;
53642;SDS011;39546;45.534;12.048;2023-03-23T18:01:12;17.02;;;14.27;;
53642;SDS011;39546;45.534;12.048;2023-03-23T18:07:14;17.70;;;13.90;;
53642;SDS011;39546;45.534;12.048;2023-03-23T18:13:16;19.33;;;14.85;;
53642;SDS011;39546;45.534;12.048;2023-03-23T18:19:19;17.33;;;15.00;;
53642;SDS011;39546;45.534;12.048;2023-03-23T18:25:21;18.90;;;16.70;;
53642;SDS011;39546;45.534;12.048;2023-03-23T18:31:23;21.12;;;17.98;;
53642;SDS011;39546;45.534;12.048;2023-03-23T18:37:26;15.65;;;14.00;;
53642;SDS011;39546;45.534;12.048;2023-03-23T18:43:28;18.55;;;14.70;;
53642;SDS011;39546;45.534;12.048;2023-03-23T18:49:31;23.05;;;19.75;;
53642;SDS011;39546;45.534;12.048;2023-03-23T18:55:34;16.58;;;14.63;;
53642;SDS011;39546;45.534;12.048;2023-03-23T19:01:36;18.02;;;14.90;;
53642;SDS011;39546;45.534;12.048;2023-03-23T19:07:38;18.45;;;16.48;;
53642;SDS011;39546;45.534;12.048;2023-03-23T19:13:41;21.42;;;18.62;;
53642;SDS011;39546;45.534;12.048;2023-03-23T19:19:43;20.02;;;16.25;;
53642;SDS011;39546;45.534;12.048;2023-03-23T19:25:46;20.85;;;17.90;;
53642;SDS011;39546;45.534;12.048;2023-03-23T19:31:48;20.75;;;17.05;;
53642;SDS011;39546;45.534;12.048;2023-03-23T19:37:50;19.45;;;16.55;;
53642;SDS011;39546;45.534;12.048;2023-03-23T19:43:52;21.45;;;18.85;;
53642;SDS011;39546;45.534;12.048;2023-03-23T19:49:54;27.95;;;21.10;;
53642;SDS011;39546;45.534;12.048;2023-03-23T19:55:59;15.45;;;12.82;;
53642;SDS011;39546;45.534;12.048;2023-03-23T20:02:02;20.62;;;18.25;;
53642;SDS011;39546;45.534;12.048;2023-03-23T20:08:04;21.55;;;18.27;;
53642;SDS011;39546;45.534;12.048;2023-03-23T20:14:07;20.83;;;17.75;;
53642;SDS011;39546;45.534;12.048;2023-03-23T20:20:09;25.95;;;22.13;;
53642;SDS011;39546;45.534;12.048;2023-03-23T20:26:13;19.67;;;17.15;;
53642;SDS011;39546;45.534;12.048;2023-03-23T20:32:15;20.95;;;18.58;;
53642;SDS011;39546;45.534;12.048;2023-03-23T20:38:18;20.40;;;18.08;;
53642;SDS011;39546;45.534;12.048;2023-03-23T20:44:20;17.60;;;15.75;;
53642;SDS011;39546;45.534;12.048;2023-03-23T20:50:25;24.17;;;21.70;;
53642;SDS011;39546;45.534;12.048;2023-03-23T20:56:27;18.67;;;16.67;;
53642;SDS011;39546;45.534;12.048;2023-03-23T21:02:29;19.55;;;16.62;;
53642;SDS011;39546;45.534;12.048;2023-03-23T21:08:35;23.00;;;20.55;;
53642;SDS011;39546;45.534;12.048;2023-03-23T21:14:38;28.17;;;24.50;;
53642;SDS011;39546;45.534;12.048;2023-03-23T21:20:41;26.48;;;22.55;;
53642;SDS011;39546;45.534;12.048;2023-03-23T21:26:43;25.85;;;22.40;;
53642;SDS011;39546;45.534;12.048;2023-03-23T21:32:45;32.42;;;27.37;;
53642;SDS011;39546;45.534;12.048;2023-03-23T21:38:48;28.85;;;23.23;;
53642;SDS011;39546;45.534;12.048;2023-03-23T21:44:51;31.58;;;26.45;;
53642;SDS011;39546;45.534;12.048;2023-03-23T21:50:54;28.62;;;25.45;;
53642;SDS011;39546;45.534;12.048;2023-03-23T21:56:56;25.25;;;20.23;;
53642;SDS011;39546;45.534;12.048;2023-03-23T22:02:59;31.52;;;24.40;;
53642;SDS011;39546;45.534;12.048;2023-03-23T22:09:02;33.53;;;27.02;;
53642;SDS011;39546;45.534;12.048;2023-03-23T22:15:06;28.85;;;25.23;;
53642;SDS011;39546;45.534;12.048;2023-03-23T22:21:10;31.90;;;28.20;;
53642;SDS011;39546;45.534;12.048;2023-03-23T22:27:13;31.87;;;25.10;;
53642;SDS011;39546;45.534;12.048;2023-03-23T22:33:15;27.62;;;22.83;;
53642;SDS011;39546;45.534;12.048;2023-03-23T22:39:18;26.40;;;21.27;;
53642;SDS011;39546;45.534;12.048;2023-03-23T22:45:20;30.23;;;22.95;;
53642;SDS011;39546;45.534;12.048;2023-03-23T22:51:23;33.10;;;23.67;;
53642;SDS011;39546;45.534;12.048;2023-03-23T22:57:26;24.33;;;21.70;;
53642;SDS011;39546;45.534;12.048;2023-03-23T23:03:28;18.75;;;16.75;;
53642;SDS011;39546;45.534;12.048;2023-03-23T23:09:31;30.02;;;26.77;;
53642;SDS011;39546;45.534;12.048;2023-03-23T23:15:33;34.17;;;28.42;;
53642;SDS011;39546;45.534;12.048;2023-03-23T23:21:36;24.27;;;20.60;;
53642;SDS011;39546;45.534;12.048;2023-03-23T23:27:38;21.77;;;19.35;;
53642;SDS011;39546;45.534;12.048;2023-03-23T23:33:40;20.60;;;17.60;;
53642;SDS011;39546;45.534;12.048;2023-03-23T23:39:42;17.50;;;15.65;;
53642;SDS011;39546;45.534;12.048;2023-03-23T23:45:45;28.33;;;24.75;;
53642;SDS011;39546;45.534;12.048;2023-03-23T23:51:47;22.37;;;20.00;;
53642;SDS011;39546;45.534;12.048;2023-03-23T23:57:50;25.65;;;22.90;;
